Time;durP1;ratioP1;P1;durP2;ratioP2;P2;SDS_P1;SDS_P2;PMS_P1;PMS_P2;Temp;Humidity;BMP_temperature;BMP_pressure;BME280_temperature;BME280_humidity;BME280_pressure;Samples;Min_cycle;Max_cycle;Signal;HPM_P1;HPM_P2
2022/05/21 00:00:21;;;;;;;3.95;3.00;;;16.60;99.90;;;;;;5037740;28;20041;-79
2022/05/21 00:02:48;;;;;;;6.22;3.20;;;16.60;99.90;;;;;;5040158;28;20024;-78
2022/05/21 00:05:15;;;;;;;5.90;3.40;;;16.70;99.90;;;;;;5017847;28;20056;-79
2022/05/21 00:07:42;;;;;;;4.40;3.10;;;16.70;99.90;;;;;;5043052;28;20068;-78
2022/05/21 00:10:09;;;;;;;5.22;3.47;;;16.70;99.90;;;;;;5034833;28;20112;-78
2022/05/21 00:12:36;;;;;;;5.43;3.40;;;16.70;99.90;;;;;;5041325;28;20104;-78
2022/05/21 00:15:02;;;;;;;12.85;3.25;;;16.70;99.90;;;;;;5045918;28;20760;-80
2022/05/21 00:17:28;;;;;;;4.13;3.10;;;16.60;99.90;;;;;;5041176;28;20053;-79
2022/05/21 00:19:53;;;;;;;4.82;3.13;;;16.60;99.90;;;;;;5037178;28;20119;-80
2022/05/21 00:22:19;;;;;;;5.72;3.22;;;16.50;99.90;;;;;;5024951;28;20117;-79
2022/05/21 00:24:45;;;;;;;6.10;3.45;;;16.50;99.90;;;;;;5046574;28;20464;-79
2022/05/21 00:27:11;;;;;;;9.70;3.30;;;16.50;99.90;;;;;;5038843;28;20420;-79
2022/05/21 00:29:37;;;;;;;4.20;3.40;;;16.50;99.90;;;;;;5035039;28;20034;-79
2022/05/21 00:32:06;;;;;;;10.18;3.50;;;16.50;99.90;;;;;;5038048;28;20032;-80
2022/05/21 00:34:34;;;;;;;5.60;3.53;;;16.60;99.90;;;;;;5035224;28;20480;-79
2022/05/21 00:37:01;;;;;;;6.85;3.05;;;16.60;99.90;;;;;;5040643;28;20026;-79
2022/05/21 00:39:27;;;;;;;6.18;3.10;;;16.60;99.90;;;;;;5046015;28;20025;-79
2022/05/21 00:41:56;;;;;;;4.68;3.00;;;16.60;99.90;;;;;;5022599;28;20552;-79
2022/05/21 00:44:22;;;;;;;11.15;3.00;;;16.60;99.90;;;;;;5018012;28;20021;-79
2022/05/21 00:46:48;;;;;;;7.00;2.83;;;16.60;99.90;;;;;;5041356;28;20071;-80
2022/05/21 00:49:20;;;;;;;3.65;2.33;;;16.60;99.90;;;;;;5040184;28;20046;-79
2022/05/21 00:51:48;;;;;;;5.20;2.90;;;16.60;99.90;;;;;;5036629;28;20146;-80
2022/05/21 00:54:20;;;;;;;3.35;2.55;;;16.60;99.90;;;;;;5044896;28;20687;-80
2022/05/21 00:56:52;;;;;;;3.13;2.08;;;16.50;99.90;;;;;;5022761;28;20029;-80
2022/05/21 01:02:06;;;;;;;2.97;2.28;;;16.50;99.90;;;;;;5037620;28;20530;-79
2022/05/21 01:04:36;;;;;;;4.70;2.13;;;16.40;99.90;;;;;;5036323;28;20043;-80
2022/05/21 01:07:06;;;;;;;2.50;2.30;;;16.40;99.90;;;;;;5040075;28;20019;-80
2022/05/21 01:09:33;;;;;;;7.85;2.25;;;16.40;99.90;;;;;;5037211;28;20035;-79
2022/05/21 01:12:02;;;;;;;2.45;2.10;;;16.40;99.90;;;;;;5041390;28;20108;-80
2022/05/21 01:14:30;;;;;;;5.18;2.33;;;16.40;99.90;;;;;;5037413;28;20030;-80
2022/05/21 01:16:55;;;;;;;4.65;2.25;;;16.50;99.90;;;;;;5040395;28;20021;-80
2022/05/21 01:19:23;;;;;;;2.72;2.10;;;16.60;99.90;;;;;;5042119;28;20481;-79
2022/05/21 01:21:49;;;;;;;6.60;2.40;;;16.70;99.90;;;;;;5020690;28;20041;-79
2022/05/21 01:24:15;;;;;;;5.93;2.67;;;16.70;99.90;;;;;;5017727;28;20029;-80
2022/05/21 01:26:41;;;;;;;4.57;2.60;;;16.80;99.90;;;;;;5041645;28;20448;-79
2022/05/21 01:29:24;;;;;;;4.25;2.40;;;16.80;99.90;;;;;;5019898;28;20428;-78
2022/05/21 01:31:52;;;;;;;5.25;2.30;;;16.80;99.90;;;;;;5035128;28;20025;-79
2022/05/21 01:34:19;;;;;;;3.75;2.22;;;16.80;99.90;;;;;;5045586;28;20029;-79
2022/05/21 01:36:46;;;;;;;6.47;2.45;;;16.90;99.90;;;;;;5035414;28;20029;-79
2022/05/21 01:39:13;;;;;;;4.25;2.10;;;16.90;99.90;;;;;;5043761;28;20025;-79
2022/05/21 01:41:48;;;;;;;7.80;2.50;;;17.00;99.90;;;;;;5020732;28;20180;-79
2022/05/21 01:47:01;;;;;;;6.28;2.50;;;17.10;99.90;;;;;;5033900;28;20487;-78
2022/05/21 01:49:27;;;;;;;7.60;2.30;;;17.10;99.90;;;;;;5039202;28;20121;-80
2022/05/21 01:51:52;;;;;;;4.25;1.90;;;17.20;99.90;;;;;;5022119;28;20533;-79
2022/05/21 01:54:18;;;;;;;2.72;2.03;;;17.20;99.90;;;;;;5036772;28;20037;-78
2022/05/21 01:56:44;;;;;;;2.95;2.42;;;17.20;99.90;;;;;;5041167;28;20491;-79
2022/05/21 01:59:10;;;;;;;2.28;2.03;;;17.20;99.90;;;;;;5018618;28;20037;-79
2022/05/21 02:01:38;;;;;;;4.10;2.40;;;17.20;99.90;;;;;;5023137;28;20125;-78
2022/05/21 02:04:04;;;;;;;4.55;2.72;;;17.20;99.90;;;;;;5040024;28;20517;-78
2022/05/21 02:06:30;;;;;;;5.43;2.55;;;17.20;99.90;;;;;;5041068;28;20479;-78
2022/05/21 02:08:59;;;;;;;10.35;2.72;;;17.20;99.90;;;;;;5042760;28;20083;-79
2022/05/21 02:11:28;;;;;;;3.28;2.40;;;17.20;99.90;;;;;;5022255;28;20034;-78
2022/05/21 02:13:54;;;;;;;10.77;2.72;;;17.20;99.90;;;;;;5018800;28;20029;-79
2022/05/21 02:16:19;;;;;;;6.03;2.55;;;17.20;99.90;;;;;;5016288;28;20040;-79
2022/05/21 02:18:45;;;;;;;7.15;2.45;;;17.20;99.90;;;;;;5044620;28;20060;-79
2022/05/21 02:21:11;;;;;;;10.55;2.85;;;17.20;99.90;;;;;;5048029;28;20033;-78
2022/05/21 02:23:37;;;;;;;2.95;2.40;;;17.20;99.90;;;;;;5044296;28;20022;-79
2022/05/21 02:26:03;;;;;;;6.20;2.20;;;17.20;99.90;;;;;;5047026;28;20040;-79
2022/05/21 02:28:30;;;;;;;8.13;2.45;;;17.20;99.90;;;;;;5025305;28;20436;-79
2022/05/21 02:30:56;;;;;;;3.90;2.47;;;17.20;99.90;;;;;;5041101;28;20452;-78
2022/05/21 02:33:21;;;;;;;3.33;2.72;;;17.20;99.90;;;;;;5026319;28;20048;-79
2022/05/21 02:35:47;;;;;;;3.55;2.60;;;17.20;99.90;;;;;;5025105;28;20029;-79
2022/05/21 02:40:57;;;;;;;4.38;2.63;;;17.10;99.90;;;;;;5042990;28;20086;-79
2022/05/21 02:43:23;;;;;;;3.80;2.70;;;17.10;99.90;;;;;;5027137;28;20025;-78
2022/05/21 02:45:48;;;;;;;5.35;2.65;;;17.00;99.90;;;;;;5044382;28;20029;-79
2022/05/21 02:48:14;;;;;;;4.78;2.63;;;17.00;99.90;;;;;;5041667;28;20063;-79
2022/05/21 02:50:41;;;;;;;11.25;2.70;;;17.00;99.90;;;;;;5047519;28;20405;-79
2022/05/21 02:53:13;;;;;;;8.43;2.60;;;17.00;99.90;;;;;;5024987;28;20033;-79
2022/05/21 02:55:39;;;;;;;3.03;2.22;;;16.90;99.90;;;;;;5043180;28;20049;-79
2022/05/21 02:58:05;;;;;;;4.45;2.15;;;16.80;99.90;;;;;;5024396;28;20597;-78
2022/05/21 03:00:31;;;;;;;3.95;2.50;;;16.90;99.90;;;;;;5028642;28;20032;-78
2022/05/21 03:02:58;;;;;;;4.40;2.83;;;17.00;99.90;;;;;;5024058;28;20024;-79
2022/05/21 03:05:29;;;;;;;5.95;2.63;;;17.00;99.90;;;;;;5038076;28;20454;-78
2022/05/21 03:07:55;;;;;;;3.28;2.63;;;17.00;99.90;;;;;;5024624;28;20067;-79
2022/05/21 03:10:23;;;;;;;7.40;2.60;;;16.90;99.90;;;;;;5039436;28;20094;-78
2022/05/21 03:12:53;;;;;;;5.18;2.70;;;16.80;99.90;;;;;;5038228;28;20079;-79
2022/05/21 03:15:23;;;;;;;6.43;2.50;;;16.80;99.90;;;;;;5027713;28;20032;-79
2022/05/21 03:17:49;;;;;;;4.00;2.63;;;16.80;99.90;;;;;;5041234;28;20088;-79
2022/05/21 03:20:17;;;;;;;6.57;2.60;;;16.70;99.90;;;;;;5030566;28;20528;-79
2022/05/21 03:22:43;;;;;;;3.90;2.53;;;16.70;99.90;;;;;;5035941;28;20031;-78
2022/05/21 03:25:10;;;;;;;5.18;2.60;;;16.70;99.90;;;;;;5020818;28;20017;-78
2022/05/21 03:27:36;;;;;;;3.33;2.35;;;16.70;99.90;;;;;;5041146;28;20021;-78
2022/05/21 03:30:04;;;;;;;5.05;2.40;;;16.70;99.90;;;;;;5043890;28;20111;-79
2022/05/21 03:32:30;;;;;;;5.13;2.63;;;16.60;99.90;;;;;;5023715;28;20071;-79
2022/05/21 03:34:56;;;;;;;3.53;2.70;;;16.60;99.90;;;;;;5026052;28;20033;-79
2022/05/21 03:37:21;;;;;;;5.75;2.40;;;16.60;99.90;;;;;;5040945;28;20528;-79
2022/05/21 03:39:50;;;;;;;3.90;2.88;;;16.60;99.90;;;;;;5019456;28;20039;-79
2022/05/21 03:42:17;;;;;;;5.65;2.90;;;16.60;99.90;;;;;;5039834;28;20020;-79
2022/05/21 03:44:43;;;;;;;2.95;2.60;;;16.60;99.90;;;;;;5043114;28;20017;-79
2022/05/21 03:47:10;;;;;;;3.40;2.78;;;16.60;99.90;;;;;;5041816;28;20021;-79
2022/05/21 03:49:36;;;;;;;7.20;3.08;;;16.70;99.90;;;;;;4987719;28;1148812;-79
2022/05/21 03:52:02;;;;;;;4.05;2.70;;;16.70;99.90;;;;;;5041378;28;20108;-79
2022/05/21 03:54:27;;;;;;;4.82;2.80;;;16.80;99.90;;;;;;5038649;28;20113;-79
2022/05/21 03:56:55;;;;;;;4.85;2.97;;;16.80;99.90;;;;;;5043064;28;20084;-79
2022/05/21 03:59:21;;;;;;;3.78;2.70;;;16.90;99.90;;;;;;5041724;28;20039;-79
2022/05/21 04:01:46;;;;;;;3.88;2.70;;;16.90;99.90;;;;;;5041576;28;20128;-79
2022/05/21 04:04:12;;;;;;;11.27;3.47;;;17.00;99.90;;;;;;5047662;28;20111;-79
2022/05/21 04:06:38;;;;;;;8.05;3.22;;;17.10;99.90;;;;;;5024563;28;20476;-79
2022/05/21 04:09:04;;;;;;;7.00;3.10;;;17.20;99.90;;;;;;5045098;28;20033;-78
2022/05/21 04:11:29;;;;;;;6.70;2.65;;;17.20;99.90;;;;;;5037041;28;20494;-79
2022/05/21 04:13:56;;;;;;;10.13;3.17;;;17.30;99.90;;;;;;5043994;28;20068;-79
2022/05/21 04:16:24;;;;;;;4.55;2.88;;;17.30;99.90;;;;;;5042047;28;20468;-78
2022/05/21 04:18:50;;;;;;;11.27;3.22;;;17.30;99.90;;;;;;5023724;28;20068;-78
2022/05/21 04:21:16;;;;;;;9.38;3.20;;;17.40;99.90;;;;;;5041170;28;20087;-77
2022/05/21 04:23:42;;;;;;;4.22;2.78;;;17.40;99.90;;;;;;5040585;28;20029;-78
2022/05/21 04:26:08;;;;;;;5.00;2.97;;;17.40;99.90;;;;;;5022494;28;20032;-78
2022/05/21 04:28:37;;;;;;;4.22;3.03;;;17.50;99.90;;;;;;5020070;28;20132;-77
2022/05/21 04:31:04;;;;;;;5.05;3.05;;;17.60;99.90;;;;;;5039881;28;20021;-77
2022/05/21 04:33:29;;;;;;;4.95;3.05;;;17.70;99.90;;;;;;5022771;28;20010;-78
2022/05/21 04:38:39;;;;;;;3.17;2.83;;;17.90;99.90;;;;;;5036670;28;20025;-77
2022/05/21 04:41:05;;;;;;;6.45;3.00;;;17.90;99.90;;;;;;5020905;28;20033;-78
2022/05/21 04:43:31;;;;;;;4.00;2.45;;;18.00;99.90;;;;;;5041976;28;20017;-77
2022/05/21 04:45:57;;;;;;;4.80;3.13;;;18.10;99.90;;;;;;5043413;28;20486;-77
2022/05/21 04:48:23;;;;;;;8.48;3.47;;;18.20;99.90;;;;;;5042443;28;20034;-78
2022/05/21 04:50:49;;;;;;;4.55;3.05;;;18.20;99.90;;;;;;5040128;28;20068;-77
2022/05/21 04:53:15;;;;;;;8.98;3.55;;;18.30;99.90;;;;;;5041442;28;20372;-77
2022/05/21 04:55:41;;;;;;;7.70;3.17;;;18.40;99.90;;;;;;5026832;28;20143;-77
2022/05/21 04:58:07;;;;;;;9.95;3.30;;;18.50;99.90;;;;;;5038034;28;20027;-78
2022/05/21 05:00:36;;;;;;;7.63;3.55;;;18.60;99.90;;;;;;5039744;28;20021;-78
2022/05/21 05:03:02;;;;;;;3.88;2.88;;;18.60;99.90;;;;;;5038215;28;20025;-78
2022/05/21 05:05:28;;;;;;;4.82;3.28;;;18.60;99.90;;;;;;5038560;28;20022;-78
2022/05/21 05:08:03;;;;;;;4.45;3.30;;;18.60;99.90;;;;;;5023230;28;20571;-78
2022/05/21 05:10:29;;;;;;;5.63;3.50;;;18.70;99.90;;;;;;5044314;28;20025;-80
2022/05/21 05:12:55;;;;;;;5.43;3.08;;;18.70;99.90;;;;;;5038124;28;20017;-80
2022/05/21 05:15:21;;;;;;;5.47;3.45;;;18.70;99.90;;;;;;5033173;28;20038;-79
2022/05/21 05:17:46;;;;;;;3.00;2.80;;;18.70;99.90;;;;;;5023287;28;20458;-79
2022/05/21 05:20:12;;;;;;;5.55;3.20;;;18.70;99.90;;;;;;5039792;28;20024;-79
2022/05/21 05:22:38;;;;;;;5.85;2.85;;;18.80;99.90;;;;;;5025184;28;20040;-78
2022/05/21 05:25:05;;;;;;;2.83;2.63;;;18.90;99.90;;;;;;5035213;28;20423;-78
2022/05/21 05:27:31;;;;;;;4.82;3.33;;;19.00;99.90;;;;;;5039098;28;20025;-78
2022/05/21 05:29:56;;;;;;;6.10;3.30;;;19.00;99.90;;;;;;5037835;28;20055;-78
2022/05/21 05:32:22;;;;;;;6.53;3.03;;;19.10;99.90;;;;;;5040219;28;20383;-78
2022/05/21 05:34:48;;;;;;;7.07;3.40;;;19.10;99.90;;;;;;5047301;28;20029;-78
2022/05/21 05:37:13;;;;;;;6.47;3.25;;;19.20;99.90;;;;;;5024079;28;20040;-78
2022/05/21 05:39:39;;;;;;;6.30;3.05;;;19.30;99.90;;;;;;5043099;28;20059;-77
2022/05/21 05:42:05;;;;;;;5.38;2.97;;;19.30;99.90;;;;;;5038196;28;20431;-78
2022/05/21 05:44:31;;;;;;;4.05;3.30;;;19.40;99.90;;;;;;5018245;28;20110;-78
2022/05/21 05:46:58;;;;;;;11.02;3.35;;;19.50;99.90;;;;;;5024841;28;20038;-79
2022/05/21 05:49:23;;;;;;;7.80;3.20;;;19.60;99.90;;;;;;5013758;28;20077;-78
2022/05/21 05:51:49;;;;;;;8.35;3.47;;;19.80;99.90;;;;;;5042182;28;20549;-78
2022/05/21 05:54:15;;;;;;;3.28;2.67;;;19.80;99.90;;;;;;5036549;28;20025;-78
2022/05/21 05:56:43;;;;;;;7.13;3.17;;;19.90;99.90;;;;;;5024196;28;20475;-78
2022/05/21 06:02:58;;;;;;;4.88;3.33;;;20.40;99.90;;;;;;5040609;28;20415;-79
2022/05/21 06:04:41;;;;;;;4.97;3.05;;;20.60;99.90;;;;;;5036123;28;20384;-79
2022/05/21 06:07:14;;;;;;;3.72;2.83;;;20.80;99.90;;;;;;5037159;28;20029;-78
2022/05/21 06:09:41;;;;;;;8.07;3.13;;;20.90;99.90;;;;;;5011758;28;20373;-78
2022/05/21 06:12:08;;;;;;;4.93;3.00;;;21.00;99.90;;;;;;5035111;28;20026;-79
2022/05/21 06:14:35;;;;;;;4.00;2.92;;;21.00;99.90;;;;;;5034646;28;20029;-78
2022/05/21 06:17:01;;;;;;;5.05;3.17;;;21.20;99.90;;;;;;5036726;28;20071;-78
2022/05/21 06:19:27;;;;;;;7.35;2.85;;;21.40;99.90;;;;;;5043922;28;20029;-79
2022/05/21 06:21:59;;;;;;;7.25;3.20;;;21.50;99.90;;;;;;5037887;28;20041;-78
2022/05/21 06:24:25;;;;;;;5.15;3.00;;;21.60;99.90;;;;;;5017259;28;20611;-79
2022/05/21 06:26:51;;;;;;;4.13;3.00;;;21.70;99.90;;;;;;5041453;28;20036;-79
2022/05/21 06:29:16;;;;;;;6.25;3.08;;;21.80;99.90;;;;;;5035958;28;20079;-81
2022/05/21 06:31:45;;;;;;;5.13;2.75;;;21.90;99.90;;;;;;5039715;28;20117;-81
2022/05/21 06:34:11;;;;;;;3.13;2.90;;;22.00;99.90;;;;;;5019743;28;20033;-82
2022/05/21 06:36:37;;;;;;;6.35;2.95;;;22.00;99.90;;;;;;5039517;28;20035;-78
2022/05/21 06:39:03;;;;;;;3.28;2.97;;;22.00;99.90;;;;;;5045880;28;20029;-78
2022/05/21 06:41:31;;;;;;;5.20;2.80;;;22.10;99.90;;;;;;5037494;28;20029;-78
2022/05/21 06:43:57;;;;;;;3.80;2.65;;;22.20;99.90;;;;;;5035514;28;20114;-77
2022/05/21 06:46:23;;;;;;;4.40;3.17;;;22.40;99.90;;;;;;5032151;28;20108;-78
2022/05/21 06:48:49;;;;;;;6.32;3.40;;;22.60;99.90;;;;;;5038511;28;20036;-77
2022/05/21 06:51:15;;;;;;;6.07;3.13;;;22.80;99.90;;;;;;5035120;28;20392;-78
2022/05/21 06:53:40;;;;;;;6.70;2.92;;;22.80;99.90;;;;;;5041874;28;20370;-79
2022/05/21 06:56:08;;;;;;;7.78;2.85;;;22.80;99.90;;;;;;5044035;28;20036;-77
2022/05/21 06:58:35;;;;;;;9.05;3.17;;;22.80;99.90;;;;;;5037070;28;20381;-81
2022/05/21 07:01:00;;;;;;;8.02;3.35;;;22.80;99.90;;;;;;5037359;28;20045;-78
2022/05/21 07:03:26;;;;;;;6.40;3.20;;;22.90;99.90;;;;;;5036624;28;20487;-80
2022/05/21 07:08:36;;;;;;;7.78;2.97;;;22.90;99.90;;;;;;5044156;28;20041;-77
2022/05/21 07:11:02;;;;;;;4.72;2.92;;;23.10;99.90;;;;;;5041385;28;20033;-77
2022/05/21 07:13:30;;;;;;;6.15;2.35;;;23.00;99.90;;;;;;5041473;28;20527;-78
2022/05/21 07:15:57;;;;;;;5.43;2.30;;;22.90;99.90;;;;;;5030325;28;20029;-79
2022/05/21 07:18:27;;;;;;;6.45;2.13;;;22.80;99.90;;;;;;5044177;28;20028;-79
2022/05/21 07:20:54;;;;;;;5.25;2.35;;;22.80;99.90;;;;;;5046443;28;20040;-79
2022/05/21 07:23:21;;;;;;;11.88;2.67;;;22.80;99.90;;;;;;5038741;28;20025;-78
2022/05/21 07:25:47;;;;;;;7.45;2.78;;;22.70;99.90;;;;;;5026285;28;20565;-78
2022/05/21 07:28:14;;;;;;;17.33;3.20;;;22.70;99.90;;;;;;5042658;28;20071;-78
2022/05/21 07:30:40;;;;;;;6.50;3.10;;;22.80;99.90;;;;;;5028762;28;20032;-77
2022/05/21 07:33:15;;;;;;;6.43;3.00;;;22.80;99.90;;;;;;5024673;28;20024;-77
2022/05/21 07:35:42;;;;;;;14.52;3.10;;;22.90;99.90;;;;;;5029781;28;20022;-78
2022/05/21 07:38:10;;;;;;;5.07;2.60;;;22.90;99.90;;;;;;5033379;28;20060;-78
2022/05/21 07:40:37;;;;;;;8.60;2.50;;;22.90;99.90;;;;;;5027336;28;20475;-78
2022/05/21 07:43:14;;;;;;;8.88;2.88;;;22.90;99.90;;;;;;5042906;28;20021;-77
2022/05/21 07:45:42;;;;;;;3.78;2.80;;;22.90;99.90;;;;;;5044418;28;20104;-77
2022/05/21 07:48:13;;;;;;;6.03;3.10;;;23.00;99.90;;;;;;5024841;28;20036;-77
2022/05/21 07:50:44;;;;;;;21.23;3.80;;;23.00;99.90;;;;;;5039567;28;20122;-77
2022/05/21 07:53:20;;;;;;;9.30;2.97;;;22.90;99.90;;;;;;5024638;28;20115;-78
2022/05/21 07:55:48;;;;;;;7.05;2.55;;;22.90;99.90;;;;;;5043768;28;20168;-79
2022/05/21 07:58:14;;;;;;;4.68;2.30;;;22.90;99.90;;;;;;5040351;28;20108;-79
2022/05/21 08:00:40;;;;;;;6.53;2.90;;;23.00;99.90;;;;;;5027745;28;20694;-79
2022/05/21 08:03:08;;;;;;;8.45;2.72;;;23.00;99.90;;;;;;5024347;28;20033;-79
2022/05/21 08:05:34;;;;;;;7.45;2.40;;;23.00;99.90;;;;;;5045446;28;20025;-80
2022/05/21 08:08:01;;;;;;;3.83;2.50;;;22.90;99.90;;;;;;5041520;28;20365;-80
2022/05/21 08:10:27;;;;;;;6.65;2.17;;;23.00;99.90;;;;;;5039060;28;20021;-79
2022/05/21 08:12:53;;;;;;;4.53;2.33;;;23.10;96.60;;;;;;5041998;28;20025;-80
2022/05/21 08:15:20;;;;;;;4.65;2.10;;;23.10;97.30;;;;;;5036496;28;20025;-81
2022/05/21 08:17:46;;;;;;;7.57;2.22;;;23.10;98.10;;;;;;5042147;28;20025;-81
2022/05/21 08:20:12;;;;;;;7.13;2.20;;;23.20;98.30;;;;;;5038237;28;20361;-78
2022/05/21 08:28:07;;;;;;;9.27;2.67;;;23.20;98.90;;;;;;5040112;28;20036;-79
2022/05/21 08:30:34;;;;;;;4.82;2.30;;;23.40;99.70;;;;;;5037877;28;20033;-80
2022/05/21 08:33:05;;;;;;;3.53;2.25;;;23.60;98.80;;;;;;5040171;28;20116;-82
2022/05/21 08:35:32;;;;;;;5.15;2.67;;;23.60;97.90;;;;;;5036280;28;20022;-82
2022/05/21 08:37:58;;;;;;;3.75;2.20;;;23.60;98.70;;;;;;5038851;28;20049;-82
2022/05/21 08:40:49;;;;;;;6.90;2.10;;;23.50;96.80;;;;;;5036985;28;20052;-79
2022/05/21 08:43:24;;;;;;;6.35;1.90;;;23.50;98.00;;;;;;5035697;28;20022;-80
2022/05/21 08:46:08;;;;;;;5.78;1.90;;;23.60;95.50;;;;;;5008682;28;20472;-79
2022/05/21 08:48:36;;;;;;;2.88;1.60;;;23.50;95.90;;;;;;5040880;28;20116;-78
2022/05/21 08:51:08;;;;;;;3.10;1.77;;;23.40;92.90;;;;;;5043837;28;20054;-80
2022/05/21 08:53:38;;;;;;;;;;;23.40;91.60;;;;;;5039645;28;20404;-86
2022/05/21 08:56:05;;;;;;;2.65;1.83;;;23.40;91.70;;;;;;5019909;28;19912;-82
2022/05/21 08:58:40;;;;;;;4.22;1.52;;;23.50;91.50;;;;;;5040997;28;20108;-80
2022/05/21 09:01:09;;;;;;;5.40;1.83;;;23.30;91.60;;;;;;5040608;28;20128;-81
2022/05/21 09:03:35;;;;;;;4.72;1.80;;;23.30;92.70;;;;;;5040863;28;20049;-85
2022/05/21 09:06:17;;;;;;;3.78;1.90;;;23.40;92.20;;;;;;5050235;28;20075;-82
2022/05/21 09:08:46;;;;;;;6.28;1.88;;;23.50;92.40;;;;;;5042410;28;20024;-78
2022/05/21 09:11:39;;;;;;;8.07;2.10;;;23.50;91.80;;;;;;5037004;28;20392;-83
2022/05/21 09:14:14;;;;;;;3.20;2.00;;;23.30;92.50;;;;;;5008120;28;20021;-81
2022/05/21 09:16:54;;;;;;;3.28;1.83;;;23.40;93.50;;;;;;5015815;28;20037;-82
2022/05/21 09:19:25;;;;;;;4.30;2.47;;;23.40;93.50;;;;;;5017435;28;20079;-80
2022/05/21 09:22:00;;;;;;;7.43;2.30;;;23.70;94.80;;;;;;5018084;28;20037;-81
2022/05/21 09:24:44;;;;;;;5.10;2.63;;;23.90;94.70;;;;;;5034956;28;20018;-78
2022/05/21 09:27:42;;;;;;;7.72;2.42;;;24.00;94.30;;;;;;5042400;28;20029;-81
2022/05/21 09:30:11;;;;;;;6.15;2.90;;;24.00;94.40;;;;;;5025714;28;20049;-81
2022/05/21 09:32:39;;;;;;;7.97;2.08;;;24.00;93.50;;;;;;5038217;28;20082;-80
2022/05/21 09:35:05;;;;;;;7.57;2.70;;;23.90;94.20;;;;;;5043519;28;20021;-81
2022/05/21 09:37:31;;;;;;;5.93;2.28;;;23.90;94.90;;;;;;5022763;28;20024;-80
2022/05/21 09:39:57;;;;;;;4.47;1.92;;;23.90;95.00;;;;;;5032623;28;20511;-80
2022/05/21 09:45:22;;;;;;;5.55;2.03;;;23.80;94.30;;;;;;5032724;28;20063;-81
2022/05/21 09:47:51;;;;;;;6.85;2.47;;;23.70;96.40;;;;;;5019928;28;20025;-80
2022/05/21 09:50:26;;;;;;;2.83;2.10;;;23.60;96.20;;;;;;5031608;28;20037;-80
2022/05/21 09:52:53;;;;;;;8.95;2.60;;;23.70;96.10;;;;;;5036387;28;20029;-81
2022/05/21 09:55:27;;;;;;;4.55;2.13;;;23.60;96.70;;;;;;5037468;28;20028;-81
2022/05/21 09:57:57;;;;;;;5.55;2.35;;;23.60;97.70;;;;;;5044614;28;20029;-80
2022/05/21 10:00:34;;;;;;;7.32;2.28;;;23.70;98.90;;;;;;5033586;28;20108;-80
2022/05/21 10:03:06;;;;;;;8.77;2.25;;;23.70;98.50;;;;;;5038240;28;20064;-80
2022/05/21 10:05:43;;;;;;;6.25;2.22;;;23.50;99.90;;;;;;5033717;28;20013;-80
2022/05/21 10:11:24;;;;;;;7.35;2.65;;;23.30;99.90;;;;;;5033907;28;20044;-80
2022/05/21 10:13:59;;;;;;;7.13;2.78;;;23.20;99.90;;;;;;5037065;28;20116;-79
2022/05/21 10:16:40;;;;;;;5.22;2.53;;;23.00;99.90;;;;;;5035339;28;20025;-82
2022/05/21 10:19:27;;;;;;;3.80;2.25;;;23.00;99.90;;;;;;5034357;28;20026;-80
2022/05/21 10:22:21;;;;;;;6.05;2.30;;;23.10;99.90;;;;;;5036273;28;20034;-79
2022/05/21 10:24:56;;;;;;;5.05;2.05;;;23.10;99.90;;;;;;5043331;28;20399;-79
2022/05/21 10:27:47;;;;;;;2.65;1.77;;;23.30;99.90;;;;;;5005891;28;20045;-80
2022/05/21 10:31:06;;;;;;;7.90;2.10;;;23.20;99.90;;;;;;5018747;28;20021;-81
2022/05/21 10:33:35;;;;;;;3.25;2.13;;;23.20;99.90;;;;;;4958673;28;20035;-82
2022/05/21 10:36:22;;;;;;;4.53;2.10;;;23.10;99.90;;;;;;5033733;28;20180;-81
2022/05/21 10:39:06;;;;;;;10.57;2.30;;;23.20;99.90;;;;;;5020655;28;20034;-82
2022/05/21 10:41:58;;;;;;;5.93;2.08;;;23.20;99.90;;;;;;5023579;28;20131;-82
2022/05/21 10:44:23;;;;;;;3.10;1.85;;;23.00;99.90;;;;;;5048712;28;20056;-82
2022/05/21 10:46:58;;;;;;;5.82;2.72;;;23.00;99.90;;;;;;5024169;28;20021;-80
2022/05/21 10:49:54;;;;;;;4.57;1.98;;;23.00;99.90;;;;;;5037516;28;20038;-80
2022/05/21 10:52:38;;;;;;;4.38;2.00;;;22.90;99.90;;;;;;5047460;28;20021;-80
2022/05/21 10:55:12;;;;;;;2.67;1.80;;;22.80;99.90;;;;;;5040544;28;20026;-81
2022/05/21 10:58:02;;;;;;;2.03;1.73;;;22.80;99.90;;;;;;5042048;28;20402;-80
2022/05/21 11:00:40;;;;;;;3.10;1.90;;;23.10;99.90;;;;;;5037201;28;20029;-79
2022/05/21 11:03:15;;;;;;;3.30;2.10;;;23.00;99.90;;;;;;5025088;28;20076;-82
2022/05/21 11:06:18;;;;;;;6.45;2.33;;;22.80;99.90;;;;;;5041878;28;20025;-81
2022/05/21 11:09:08;;;;;;;6.40;2.88;;;22.80;99.90;;;;;;5039989;28;20021;-80
2022/05/21 11:11:42;;;;;;;5.97;2.15;;;22.90;99.90;;;;;;5040790;28;20025;-80
2022/05/21 11:14:40;;;;;;;9.43;3.05;;;23.10;99.90;;;;;;5045087;28;20116;-81
2022/05/21 11:17:50;;;;;;;4.53;2.60;;;23.10;99.90;;;;;;5041220;28;20021;-82
2022/05/21 11:20:23;;;;;;;4.32;1.95;;;23.20;99.90;;;;;;5036624;28;20555;-83
2022/05/21 11:23:34;;;;;;;5.47;2.20;;;22.80;99.90;;;;;;5043264;28;20044;-81
2022/05/21 11:26:18;;;;;;;3.38;2.15;;;22.70;99.90;;;;;;5034829;28;20040;-81
2022/05/21 11:28:55;;;;;;;3.83;2.35;;;22.60;99.90;;;;;;5041146;28;20503;-81
2022/05/21 11:39:48;;;;;;;7.05;2.63;;;22.70;99.90;;;;;;5035298;28;20392;-82
2022/05/21 11:42:16;;;;;;;7.30;2.92;;;22.70;99.90;;;;;;5042403;28;20029;-80
2022/05/21 11:44:55;;;;;;;5.63;2.25;;;22.50;99.90;;;;;;5028949;28;20025;-82
2022/05/21 11:47:21;;;;;;;6.63;2.70;;;22.40;99.90;;;;;;5037558;28;20036;-82
2022/05/21 11:49:56;;;;;;;11.55;2.92;;;22.60;99.90;;;;;;5039497;28;20496;-81
2022/05/21 11:52:27;;;;;;;7.25;2.85;;;22.60;99.90;;;;;;5038043;28;20025;-83
2022/05/21 11:55:11;;;;;;;3.38;2.40;;;22.60;99.90;;;;;;5035285;28;20029;-81
2022/05/21 11:57:50;;;;;;;5.15;2.63;;;22.90;99.90;;;;;;5040734;28;20513;-83
2022/05/21 12:00:18;;;;;;;5.88;2.33;;;23.70;99.90;;;;;;5043013;28;20542;-82
2022/05/21 12:02:56;;;;;;;4.10;2.28;;;26.20;99.90;;;;;;5036799;28;20086;-79
2022/05/21 12:05:34;;;;;;;10.80;2.10;;;28.10;99.90;;;;;;5012185;28;20488;-80
2022/05/21 12:08:36;;;;;;;5.00;1.95;;;30.00;99.90;;;;;;5040630;28;20040;-82
2022/05/21 12:11:09;;;;;;;5.53;2.20;;;31.30;99.90;;;;;;5033467;28;20040;-82
2022/05/21 12:13:35;;;;;;;2.17;1.83;;;31.20;99.90;;;;;;5025560;28;20147;-82
2022/05/21 12:16:20;;;;;;;4.60;1.85;;;31.00;99.90;;;;;;5042586;28;20075;-82
2022/05/21 12:18:51;;;;;;;4.22;2.08;;;31.20;99.90;;;;;;5026337;28;20025;-82
2022/05/21 12:24:15;;;;;;;5.00;2.20;;;31.00;99.90;;;;;;5046359;28;20069;-82
2022/05/21 12:26:44;;;;;;;3.78;1.90;;;31.30;99.90;;;;;;5022098;28;20356;-81
2022/05/21 12:29:16;;;;;;;2.60;2.00;;;31.50;99.90;;;;;;5038993;28;20392;-82
2022/05/21 12:31:42;;;;;;;11.60;2.22;;;31.10;99.90;;;;;;5042415;28;20100;-82
2022/05/21 12:34:23;;;;;;;5.65;2.30;;;31.00;99.90;;;;;;5046850;28;20025;-84
2022/05/21 12:37:24;;;;;;;3.55;2.03;;;31.40;99.90;;;;;;5021325;28;20025;-83
2022/05/21 12:39:58;;;;;;;3.47;2.08;;;32.10;99.90;;;;;;5027714;28;20076;-81
2022/05/21 12:42:47;;;;;;;4.20;2.15;;;32.80;99.90;;;;;;5039591;28;20047;-82
2022/05/21 12:45:29;;;;;;;4.63;2.40;;;33.90;99.80;;;;;;5048923;28;20023;-83
2022/05/21 12:48:10;;;;;;;5.75;2.30;;;34.70;99.20;;;;;;5040886;28;20034;-82
2022/05/21 12:50:50;;;;;;;4.97;1.88;;;35.60;98.10;;;;;;5043797;28;20052;-83
2022/05/21 12:53:47;;;;;;;6.78;1.92;;;36.10;96.60;;;;;;5039898;28;20420;-81
2022/05/21 12:56:17;;;;;;;5.07;2.28;;;36.20;95.50;;;;;;5010540;28;20164;-82
2022/05/21 12:58:43;;;;;;;5.35;2.67;;;36.60;94.70;;;;;;5022178;28;20079;-81
2022/05/21 13:01:21;;;;;;;8.50;2.33;;;36.00;93.30;;;;;;5021134;28;20030;-82
2022/05/21 13:03:46;;;;;;;5.75;2.10;;;35.30;94.40;;;;;;5035489;28;20033;-81
2022/05/21 13:06:17;;;;;;;4.60;2.40;;;34.70;94.50;;;;;;5042346;28;20032;-82
2022/05/21 13:08:42;;;;;;;6.65;2.53;;;34.20;94.60;;;;;;5042642;28;20029;-81
2022/05/21 13:11:18;;;;;;;6.70;2.35;;;33.70;93.80;;;;;;5042837;28;20025;-82
2022/05/21 13:13:57;;;;;;;6.15;2.60;;;34.00;93.60;;;;;;5043164;28;20053;-82
2022/05/21 13:16:23;;;;;;;9.45;2.25;;;35.00;92.30;;;;;;5041134;28;20021;-80
2022/05/21 13:19:07;;;;;;;8.95;2.67;;;36.10;90.80;;;;;;5043404;28;20062;-81
2022/05/21 13:21:33;;;;;;;6.30;2.38;;;35.20;90.30;;;;;;5042591;28;20531;-81
2022/05/21 13:24:37;;;;;;;6.53;2.67;;;35.10;90.00;;;;;;5043210;28;20131;-82
2022/05/21 13:27:18;;;;;;;8.25;2.40;;;34.60;89.70;;;;;;5009390;28;20033;-82
2022/05/21 13:29:45;;;;;;;6.70;2.58;;;34.60;89.20;;;;;;5045833;28;20297;-79
2022/05/21 13:32:32;;;;;;;4.55;2.20;;;36.30;89.60;;;;;;5039011;28;20457;-81
2022/05/21 13:35:19;;;;;;;5.50;2.58;;;37.40;83.20;;;;;;5043902;28;20084;-82
2022/05/21 13:37:46;;;;;;;5.70;2.50;;;37.90;78.60;;;;;;5026740;28;20025;-80
2022/05/21 13:40:23;;;;;;;4.53;2.35;;;38.70;81.00;;;;;;5037157;28;20021;-80
2022/05/21 13:42:52;;;;;;;11.38;2.28;;;39.70;79.10;;;;;;5035172;28;20056;-79